createdAt,value
2022-12-12T00:00:14.682Z,27.19
2022-12-12T00:02:12.732Z,27.19
2022-12-12T00:04:10.702Z,27.25
2022-12-12T00:06:08.675Z,27.31
2022-12-12T00:08:06.591Z,27.31
2022-12-12T00:10:04.541Z,27.38
2022-12-12T00:12:02.650Z,27.19
2022-12-12T00:14:00.605Z,26.94
2022-12-12T00:16:01.431Z,26.75
2022-12-12T00:17:59.432Z,26.69
2022-12-12T00:19:57.379Z,26.63
2022-12-12T00:21:55.465Z,26.88
2022-12-12T00:23:53.330Z,26.88
2022-12-12T00:25:51.409Z,26.88
2022-12-12T00:27:49.475Z,26.81
2022-12-12T00:29:47.360Z,26.69
2022-12-12T00:31:45.636Z,26.75
2022-12-12T00:33:44.968Z,26.81
2022-12-12T00:35:42.882Z,26.75
2022-12-12T00:37:40.876Z,26.69
2022-12-12T00:39:38.868Z,26.56
2022-12-12T00:41:36.806Z,26.69
2022-12-12T00:43:34.871Z,26.69
2022-12-12T00:45:32.777Z,27.13
2022-12-12T00:47:32.238Z,27.19
2022-12-12T00:49:30.208Z,27.44
2022-12-12T00:51:28.332Z,27.31
2022-12-12T00:53:26.319Z,27.38
2022-12-12T00:55:24.311Z,27.31
2022-12-12T00:57:22.219Z,27.31
2022-12-12T00:59:20.769Z,27.31
2022-12-12T01:01:18.717Z,27.44
2022-12-12T01:03:16.797Z,27.50
2022-12-12T01:05:15.156Z,27.25
2022-12-12T01:07:13.511Z,27.38
2022-12-12T01:09:11.453Z,27.38
2022-12-12T01:11:09.709Z,27.25
2022-12-12T01:13:07.597Z,27.31
2022-12-12T01:15:05.518Z,27.19
2022-12-12T01:17:03.566Z,26.88
2022-12-12T01:19:01.438Z,26.75
2022-12-12T01:20:59.358Z,26.75
2022-12-12T01:22:57.455Z,26.75
2022-12-12T01:27:08.766Z,26.69
2022-12-12T01:29:06.704Z,26.63
2022-12-12T01:31:04.636Z,26.56
2022-12-12T01:33:03.782Z,26.50
2022-12-12T01:35:01.717Z,26.56
2022-12-12T01:36:59.630Z,26.56
2022-12-12T01:38:57.625Z,26.50
2022-12-12T01:40:57.955Z,26.44
2022-12-12T01:42:55.952Z,26.50
2022-12-12T01:44:53.869Z,26.50
2022-12-12T01:46:52.089Z,26.81
2022-12-12T01:48:50.481Z,27.00
2022-12-12T01:50:48.407Z,27.25
2022-12-12T01:52:46.319Z,28.19
2022-12-12T01:54:45.317Z,28.38
2022-12-12T01:56:45.550Z,26.19
2022-12-12T01:58:43.458Z,25.06
2022-12-12T02:00:41.420Z,23.56
2022-12-12T02:02:39.368Z,27.19
2022-12-12T02:04:37.646Z,27.69
2022-12-12T02:06:35.733Z,28.25
2022-12-12T02:08:34.717Z,28.56
2022-12-12T02:10:32.675Z,28.75
2022-12-12T02:12:30.647Z,28.88
2022-12-12T02:14:28.635Z,28.94
2022-12-12T02:16:26.635Z,29.25
2022-12-12T02:18:24.554Z,29.56
2022-12-12T02:20:23.550Z,29.38
2022-12-12T02:22:22.472Z,29.31
2022-12-12T02:24:25.732Z,29.38
2022-12-12T02:26:24.105Z,29.25
2022-12-12T02:28:22.142Z,29.31
2022-12-12T02:30:20.102Z,29.13
2022-12-12T02:32:18.180Z,28.81
2022-12-12T02:34:16.042Z,28.56
2022-12-12T02:36:13.942Z,28.44
2022-12-12T02:38:11.871Z,28.44
2022-12-12T02:40:09.778Z,28.06
2022-12-12T02:42:07.643Z,28.06
2022-12-12T02:44:05.564Z,27.81
2022-12-12T02:46:03.519Z,27.81
2022-12-12T02:48:01.451Z,27.69
2022-12-12T02:49:59.323Z,27.69
2022-12-12T02:51:57.304Z,27.63
2022-12-12T02:53:55.392Z,27.63
2022-12-12T02:55:53.312Z,27.38
2022-12-12T02:57:51.510Z,27.25
2022-12-12T02:59:49.490Z,27.06
2022-12-12T03:01:47.426Z,27.00
2022-12-12T03:04:02.983Z,26.94
2022-12-12T03:06:18.569Z,26.81
2022-12-12T03:08:16.501Z,26.75
2022-12-12T03:10:16.464Z,26.69
2022-12-12T03:12:14.501Z,26.63
2022-12-12T03:14:12.409Z,26.75
2022-12-12T03:16:10.734Z,26.63
2022-12-12T03:18:08.784Z,26.63
2022-12-12T03:20:06.708Z,26.50
2022-12-12T03:22:04.622Z,26.44
2022-12-12T03:24:02.541Z,26.38
2022-12-12T03:26:00.544Z,26.56
2022-12-12T03:27:58.481Z,26.63
2022-12-12T03:29:56.385Z,26.69
2022-12-12T03:31:54.487Z,26.63
2022-12-12T03:33:52.478Z,26.50
2022-12-12T03:35:50.418Z,26.44
2022-12-12T03:37:48.339Z,26.50
2022-12-12T03:39:46.436Z,26.50
2022-12-12T03:41:44.322Z,26.44
2022-12-12T03:43:42.293Z,26.31
2022-12-12T03:45:40.449Z,26.44
2022-12-12T03:47:38.380Z,26.38
2022-12-12T03:49:36.664Z,26.75
2022-12-12T03:51:35.000Z,26.94
2022-12-12T03:53:33.598Z,27.06
2022-12-12T03:55:31.597Z,27.13
2022-12-12T03:57:34.188Z,27.25
2022-12-12T03:59:32.356Z,27.38
2022-12-12T04:01:30.369Z,27.44
2022-12-12T04:03:28.309Z,27.38
2022-12-12T04:05:26.165Z,27.50
2022-12-12T04:07:24.465Z,27.19
2022-12-12T04:09:39.975Z,27.19
2022-12-12T04:11:55.698Z,27.31
2022-12-12T04:13:54.014Z,27.31
2022-12-12T04:15:52.749Z,27.38
2022-12-12T04:17:55.151Z,27.38
2022-12-12T04:20:10.864Z,27.00
2022-12-12T04:22:27.517Z,26.56
2022-12-12T04:24:25.525Z,26.69
2022-12-12T04:26:40.916Z,26.63
2022-12-12T04:28:38.835Z,26.50
2022-12-12T04:30:36.790Z,26.69
2022-12-12T04:32:34.761Z,26.63
2022-12-12T04:34:32.663Z,26.50
2022-12-12T04:36:30.773Z,26.44
2022-12-12T04:38:28.745Z,26.56
2022-12-12T04:40:26.706Z,26.50
2022-12-12T04:42:24.595Z,26.44
2022-12-12T04:44:22.523Z,26.31
2022-12-12T04:46:20.491Z,27.00
2022-12-12T04:48:18.460Z,27.25
2022-12-12T04:50:16.561Z,27.19
2022-12-12T04:52:14.524Z,27.13
2022-12-12T04:54:12.496Z,27.19
2022-12-12T04:56:10.407Z,27.25
2022-12-12T04:58:08.303Z,27.31
2022-12-12T05:00:06.200Z,27.44
2022-12-12T05:02:04.128Z,27.13
2022-12-12T05:04:02.121Z,27.19
2022-12-12T05:06:00.042Z,27.19
2022-12-12T05:07:58.020Z,27.25
2022-12-12T05:09:56.024Z,27.31
2022-12-12T05:11:54.066Z,27.31
2022-12-12T05:13:52.194Z,27.38
2022-12-12T05:15:50.122Z,27.25
2022-12-12T05:17:48.209Z,26.63
2022-12-12T05:19:46.169Z,26.75
2022-12-12T05:21:44.451Z,26.63
2022-12-12T05:23:43.407Z,26.63
2022-12-12T05:25:41.343Z,26.50
2022-12-12T05:27:39.254Z,26.44
2022-12-12T05:29:37.174Z,26.63
2022-12-12T05:31:35.117Z,26.44
2022-12-12T05:33:33.200Z,26.38
2022-12-12T05:35:31.147Z,26.44
2022-12-12T05:37:29.066Z,27.00
2022-12-12T05:39:27.022Z,27.13
2022-12-12T05:41:24.979Z,27.31
2022-12-12T05:43:23.083Z,27.13
2022-12-12T05:45:21.013Z,27.19
2022-12-12T05:47:19.281Z,27.31
2022-12-12T05:49:17.212Z,27.44
2022-12-12T05:51:15.352Z,27.50
2022-12-12T05:53:13.244Z,27.56
2022-12-12T05:55:11.553Z,27.25
2022-12-12T05:57:09.802Z,27.31
2022-12-12T05:59:07.704Z,27.38
2022-12-12T06:01:05.850Z,27.25
2022-12-12T06:03:03.754Z,27.31
2022-12-12T06:05:01.631Z,27.31
2022-12-12T06:06:59.625Z,27.31
2022-12-12T06:08:57.596Z,27.38
2022-12-12T06:10:55.502Z,27.38
2022-12-12T06:12:53.428Z,26.81
2022-12-12T06:14:51.434Z,26.69
2022-12-12T06:16:49.693Z,26.69
2022-12-12T06:18:47.639Z,26.63
2022-12-12T06:20:45.539Z,26.50
2022-12-12T06:22:43.452Z,26.63
2022-12-12T06:24:41.398Z,26.56
2022-12-12T06:26:39.390Z,26.50
2022-12-12T06:28:37.501Z,26.38
2022-12-12T06:30:35.390Z,26.50
2022-12-12T06:32:33.312Z,27.00
2022-12-12T06:34:31.315Z,27.19
2022-12-12T06:36:29.244Z,27.06
2022-12-12T06:38:27.223Z,27.06
2022-12-12T06:40:25.178Z,27.19
2022-12-12T06:42:23.089Z,27.25
2022-12-12T06:44:21.062Z,27.31
2022-12-12T06:46:19.067Z,27.38
2022-12-12T06:48:19.323Z,27.44
2022-12-12T06:50:23.399Z,27.50
2022-12-12T06:52:21.827Z,27.19
2022-12-12T06:54:19.895Z,27.25
2022-12-12T06:56:17.850Z,27.25
2022-12-12T06:58:15.829Z,27.25
2022-12-12T07:00:13.882Z,29.06
2022-12-12T07:02:11.828Z,30.63
2022-12-12T07:04:09.924Z,30.94
2022-12-12T07:06:07.914Z,31.19
2022-12-12T07:08:05.870Z,31.31
2022-12-12T07:10:04.900Z,31.38
2022-12-12T07:12:02.978Z,31.44
2022-12-12T07:14:03.676Z,31.44
2022-12-12T07:16:01.940Z,31.44
2022-12-12T07:18:00.033Z,31.38
2022-12-12T07:19:57.940Z,31.31
2022-12-12T07:21:56.120Z,31.31
2022-12-12T07:23:54.028Z,31.19
2022-12-12T07:25:51.985Z,31.19
2022-12-12T07:27:50.000Z,31.13
2022-12-12T07:29:48.027Z,31.13
2022-12-12T07:31:45.948Z,31.06
2022-12-12T07:33:46.036Z,31.06
2022-12-12T07:35:43.939Z,31.06
2022-12-12T07:37:42.897Z,31.06
2022-12-12T07:39:40.853Z,31.00
2022-12-12T07:41:40.930Z,31.06
2022-12-12T07:43:43.405Z,31.06
2022-12-12T07:45:42.742Z,31.13
2022-12-12T07:47:40.677Z,31.19
2022-12-12T07:49:38.558Z,31.25
2022-12-12T07:51:36.439Z,31.31
2022-12-12T07:53:34.342Z,31.38
2022-12-12T07:55:44.863Z,31.38
2022-12-12T07:57:42.781Z,31.44
2022-12-12T07:59:40.708Z,31.50
2022-12-12T08:01:39.754Z,31.56
2022-12-12T08:03:37.686Z,31.63
2022-12-12T08:05:35.574Z,31.69
2022-12-12T08:07:33.492Z,31.75
2022-12-12T08:09:31.503Z,31.75
2022-12-12T08:11:29.511Z,31.88
2022-12-12T08:13:27.483Z,31.88
2022-12-12T08:15:25.376Z,31.94
2022-12-12T08:17:23.273Z,32.00
2022-12-12T08:19:21.134Z,32.06
2022-12-12T08:21:25.148Z,32.13
2022-12-12T08:23:23.873Z,32.13
2022-12-12T08:25:21.764Z,32.19
2022-12-12T08:27:19.708Z,32.19
2022-12-12T08:29:17.733Z,32.25
2022-12-12T08:31:15.818Z,32.25
2022-12-12T08:33:13.787Z,32.31
2022-12-12T08:35:25.679Z,32.31
2022-12-12T08:37:23.602Z,32.38
2022-12-12T08:39:21.473Z,32.38
2022-12-12T08:41:19.776Z,32.38
2022-12-12T08:43:17.676Z,32.38
2022-12-12T08:45:15.845Z,32.44
2022-12-12T08:47:13.975Z,32.44
2022-12-12T08:49:11.980Z,32.44
2022-12-12T08:51:09.894Z,32.44
2022-12-12T08:53:07.769Z,32.44
2022-12-12T08:55:05.738Z,32.44
2022-12-12T08:57:03.777Z,32.44
2022-12-12T08:59:01.768Z,32.38
2022-12-12T09:00:59.669Z,32.38
2022-12-12T09:02:57.710Z,28.38
2022-12-12T09:04:55.652Z,28.13
2022-12-12T09:06:53.705Z,25.94
2022-12-12T09:08:51.599Z,25.06
2022-12-12T09:10:49.514Z,23.94
2022-12-12T09:12:47.833Z,27.50
2022-12-12T09:14:45.775Z,27.44
2022-12-12T09:16:43.847Z,28.06
2022-12-12T09:18:48.484Z,28.50
2022-12-12T09:20:47.240Z,28.81
2022-12-12T09:22:45.165Z,29.06
2022-12-12T09:24:43.123Z,29.38
2022-12-12T09:26:41.038Z,29.75
2022-12-12T09:28:39.002Z,30.19
2022-12-12T09:30:36.967Z,30.50
2022-12-12T09:32:35.957Z,30.94
2022-12-12T09:34:33.873Z,31.25
2022-12-12T09:36:31.806Z,31.50
2022-12-12T09:38:29.718Z,31.81
2022-12-12T09:40:27.664Z,32.19
2022-12-12T09:42:25.574Z,32.50
2022-12-12T09:44:23.548Z,32.69
2022-12-12T09:46:21.461Z,32.94
2022-12-12T09:48:19.420Z,33.13
2022-12-12T09:50:17.373Z,33.31
2022-12-12T09:52:15.280Z,33.44
2022-12-12T09:54:13.156Z,33.63
2022-12-12T09:56:11.277Z,33.75
2022-12-12T09:58:09.171Z,33.81
2022-12-12T10:00:08.052Z,33.88
2022-12-12T10:02:06.481Z,34.00
2022-12-12T10:04:04.393Z,34.06
2022-12-12T10:06:28.694Z,34.06
2022-12-12T10:08:20.491Z,34.06
2022-12-12T10:10:18.587Z,34.06
2022-12-12T10:12:16.483Z,34.06
2022-12-12T10:14:14.415Z,34.00
2022-12-12T10:16:12.484Z,34.00
2022-12-12T10:18:10.470Z,33.94
2022-12-12T10:20:08.398Z,34.00
2022-12-12T10:22:06.358Z,33.94
2022-12-12T10:24:04.256Z,33.94
2022-12-12T10:26:02.263Z,33.88
2022-12-12T10:28:00.245Z,33.81
2022-12-12T10:29:58.286Z,33.75
2022-12-12T10:31:56.616Z,33.69
2022-12-12T10:33:54.918Z,33.63
2022-12-12T10:35:52.854Z,33.56
2022-12-12T10:37:50.752Z,33.50
2022-12-12T10:39:48.838Z,33.44
2022-12-12T10:41:46.749Z,33.38
2022-12-12T10:43:44.705Z,33.31
2022-12-12T10:45:42.996Z,33.19
2022-12-12T10:47:41.108Z,33.13
2022-12-12T10:49:39.205Z,33.06
2022-12-12T10:51:37.125Z,33.00
2022-12-12T10:53:35.251Z,32.94
2022-12-12T10:55:33.210Z,32.94
2022-12-12T10:57:31.135Z,32.81
2022-12-12T10:59:29.342Z,32.75
2022-12-12T11:01:52.313Z,32.75
2022-12-12T11:03:45.514Z,32.75
2022-12-12T11:05:43.525Z,32.69
2022-12-12T11:07:41.663Z,32.63
2022-12-12T11:09:39.691Z,32.56
2022-12-12T11:11:37.995Z,32.56
2022-12-12T11:13:36.447Z,32.56
2022-12-12T11:15:34.424Z,32.56
2022-12-12T11:17:32.649Z,32.50
2022-12-12T11:19:30.575Z,32.50
2022-12-12T11:21:28.713Z,32.50
2022-12-12T11:23:26.648Z,32.44
2022-12-12T11:25:24.552Z,32.44
2022-12-12T11:27:22.462Z,32.44
2022-12-12T11:29:20.395Z,32.44
2022-12-12T11:31:18.364Z,32.44
2022-12-12T11:33:16.677Z,32.38
2022-12-12T11:35:15.134Z,32.44
2022-12-12T11:37:13.412Z,32.38
2022-12-12T11:39:11.314Z,32.38
2022-12-12T11:41:09.231Z,32.44
2022-12-12T11:43:07.184Z,32.44
2022-12-12T11:45:05.394Z,32.44
2022-12-12T11:47:03.434Z,32.44
2022-12-12T11:49:01.374Z,32.44
2022-12-12T11:51:00.521Z,32.44
2022-12-12T11:52:58.634Z,32.44
2022-12-12T11:54:57.635Z,32.44
2022-12-12T11:56:57.595Z,32.44
2022-12-12T11:58:55.530Z,32.50
2022-12-12T12:00:53.414Z,32.50
2022-12-12T12:02:51.462Z,32.50
2022-12-12T12:04:53.299Z,32.50
2022-12-12T12:06:51.665Z,32.50
2022-12-12T12:08:49.759Z,32.50
2022-12-12T12:10:47.753Z,32.50
2022-12-12T12:12:45.677Z,32.56
2022-12-12T12:14:43.669Z,32.56
2022-12-12T12:16:44.308Z,32.56
2022-12-12T12:18:42.607Z,32.56
2022-12-12T12:20:40.814Z,32.63
2022-12-12T12:22:39.115Z,32.63
2022-12-12T12:24:37.452Z,32.63
2022-12-12T12:26:35.391Z,32.63
2022-12-12T12:28:33.459Z,32.63
2022-12-12T12:30:31.704Z,32.56
2022-12-12T12:32:29.653Z,32.63
2022-12-12T12:34:27.570Z,32.63
2022-12-12T12:36:25.629Z,32.63
2022-12-12T12:38:23.712Z,32.63
2022-12-12T12:40:21.652Z,32.63
2022-12-12T12:42:19.970Z,32.63
2022-12-12T12:44:18.267Z,32.63
2022-12-12T12:46:16.395Z,32.63
2022-12-12T12:48:14.623Z,32.63
2022-12-12T12:50:13.095Z,32.63
2022-12-12T12:52:11.577Z,32.63
2022-12-12T12:54:09.511Z,32.56
2022-12-12T12:56:07.423Z,32.63
2022-12-12T12:58:05.322Z,32.56
2022-12-12T13:00:03.299Z,32.56
2022-12-12T13:02:01.274Z,32.56
2022-12-12T13:03:59.183Z,32.63
2022-12-12T13:05:57.126Z,32.56
2022-12-12T13:07:55.123Z,32.63
2022-12-12T13:09:53.382Z,32.63
2022-12-12T13:11:51.546Z,32.63
2022-12-12T13:13:49.776Z,32.56
2022-12-12T13:15:47.809Z,32.63
2022-12-12T13:17:46.287Z,32.63
2022-12-12T13:19:44.600Z,32.56
2022-12-12T13:21:42.642Z,32.63
2022-12-12T13:23:40.765Z,32.63
2022-12-12T13:25:38.711Z,32.63
2022-12-12T13:27:36.791Z,32.63
2022-12-12T13:29:35.062Z,32.63
2022-12-12T13:31:33.180Z,32.63
2022-12-12T13:33:31.203Z,32.63
2022-12-12T13:35:29.292Z,32.56
2022-12-12T13:37:27.245Z,32.56
2022-12-12T13:39:25.533Z,32.56
2022-12-12T13:41:23.443Z,32.56
2022-12-12T13:43:22.655Z,32.56
2022-12-12T13:45:20.539Z,32.56
2022-12-12T13:47:18.488Z,32.56
2022-12-12T13:49:16.390Z,32.56
2022-12-12T13:51:14.364Z,32.56
2022-12-12T13:53:12.303Z,32.56
2022-12-12T13:55:10.260Z,32.56
2022-12-12T13:57:08.242Z,32.56
2022-12-12T13:59:06.504Z,32.56
2022-12-12T14:01:04.425Z,32.56
2022-12-12T14:03:02.857Z,32.56
2022-12-12T14:05:00.823Z,32.56
2022-12-12T14:06:58.751Z,32.56
2022-12-12T14:08:57.003Z,32.56
2022-12-12T14:10:54.878Z,32.56
2022-12-12T14:12:52.947Z,32.56
2022-12-12T14:14:50.848Z,31.56
2022-12-12T14:16:48.840Z,29.13
2022-12-12T14:18:46.812Z,27.25
2022-12-12T14:20:45.102Z,25.06
2022-12-12T14:22:43.020Z,29.13
2022-12-12T14:24:47.922Z,29.25
2022-12-12T14:26:46.344Z,29.94
2022-12-12T14:28:44.422Z,30.19
2022-12-12T14:30:42.322Z,30.44
2022-12-12T14:32:40.447Z,30.69
2022-12-12T14:34:38.637Z,30.81
2022-12-12T15:15:53.441Z,30.44
2022-12-12T15:17:51.379Z,31.00
2022-12-12T15:19:50.141Z,31.13
2022-12-12T15:21:48.123Z,31.13
2022-12-12T15:23:46.204Z,31.13
2022-12-12T15:25:44.133Z,31.19
2022-12-12T15:27:48.155Z,31.25
2022-12-12T15:29:50.511Z,31.31
2022-12-12T15:31:49.588Z,31.38
2022-12-12T15:33:47.559Z,31.44
2022-12-12T15:35:45.608Z,31.56
2022-12-12T15:37:43.537Z,31.63
2022-12-12T15:39:41.687Z,31.69
2022-12-12T15:41:39.606Z,31.81
2022-12-12T15:43:37.986Z,31.88
2022-12-12T15:45:35.860Z,31.94
2022-12-12T15:47:34.055Z,32.06
2022-12-12T15:49:31.952Z,32.13
2022-12-12T15:51:29.859Z,32.19
2022-12-12T15:53:27.770Z,32.31
2022-12-12T15:55:25.746Z,32.38
2022-12-12T15:57:23.890Z,32.44
2022-12-12T15:59:21.814Z,32.50
2022-12-12T16:01:20.750Z,32.56
2022-12-12T16:03:19.861Z,32.63
2022-12-12T16:05:17.772Z,32.69
2022-12-12T16:07:16.772Z,32.75
2022-12-12T16:09:14.720Z,32.75
2022-12-12T16:11:12.817Z,32.81
2022-12-12T16:13:10.821Z,32.88
2022-12-12T16:15:08.741Z,32.94
2022-12-12T16:17:06.680Z,32.94
2022-12-12T16:19:04.791Z,32.94
2022-12-12T16:21:02.699Z,33.00
2022-12-12T16:23:00.640Z,33.00
2022-12-12T16:24:58.941Z,33.00
2022-12-12T16:26:56.874Z,33.00
2022-12-12T16:28:54.880Z,33.00
2022-12-12T16:30:52.837Z,33.06
2022-12-12T16:32:50.760Z,33.06
2022-12-12T16:34:48.668Z,33.00
2022-12-12T16:36:46.986Z,33.00
2022-12-12T16:38:44.972Z,33.00
2022-12-12T16:40:42.996Z,32.94
2022-12-12T16:42:40.922Z,32.94
2022-12-12T16:44:38.825Z,32.94
2022-12-12T16:46:36.756Z,32.88
2022-12-12T16:48:34.655Z,32.88
2022-12-12T16:50:32.583Z,32.81
2022-12-12T16:52:30.552Z,32.75
2022-12-12T16:54:28.503Z,32.69
2022-12-12T16:56:26.403Z,32.69
2022-12-12T16:58:24.546Z,32.63
2022-12-12T17:00:22.627Z,32.63
2022-12-12T17:02:21.036Z,32.63
2022-12-12T17:04:19.068Z,32.50
2022-12-12T17:06:17.007Z,32.50
2022-12-12T17:08:16.115Z,32.44
2022-12-12T17:10:14.420Z,32.38
2022-12-12T17:12:13.258Z,32.38
2022-12-12T17:14:11.333Z,32.31
2022-12-12T17:16:09.619Z,32.31
2022-12-12T17:18:07.519Z,32.31
2022-12-12T17:20:05.503Z,32.25
2022-12-12T17:22:03.665Z,32.25
2022-12-12T17:24:01.938Z,32.25
2022-12-12T17:26:03.947Z,32.25
2022-12-12T17:28:03.010Z,32.25
2022-12-12T17:30:07.334Z,32.19
2022-12-12T17:32:05.293Z,32.13
2022-12-12T17:34:03.623Z,32.13
2022-12-12T17:36:01.605Z,32.13
2022-12-12T17:37:59.679Z,32.13
2022-12-12T17:39:57.701Z,32.19
2022-12-12T17:41:55.652Z,32.13
2022-12-12T17:43:55.546Z,32.13
2022-12-12T17:45:53.763Z,32.00
2022-12-12T17:47:51.918Z,32.06
2022-12-12T17:49:50.138Z,32.06
2022-12-12T17:51:48.415Z,32.00
2022-12-12T17:53:47.612Z,32.00
2022-12-12T17:55:55.238Z,32.00
2022-12-12T17:58:00.481Z,32.00
2022-12-12T17:59:58.519Z,31.94
2022-12-12T18:01:56.490Z,32.00
2022-12-12T18:03:54.770Z,32.00
2022-12-12T18:05:52.680Z,31.94
2022-12-12T18:07:51.003Z,31.94
2022-12-12T18:09:48.959Z,31.94
2022-12-12T18:11:47.065Z,31.94
2022-12-12T18:13:45.354Z,31.94
2022-12-12T18:15:44.697Z,31.94
2022-12-12T18:17:42.664Z,31.94
2022-12-12T18:19:40.578Z,31.94
2022-12-12T18:23:57.241Z,31.94
2022-12-12T18:25:55.527Z,31.94
2022-12-12T18:27:53.523Z,31.88
2022-12-12T18:29:51.862Z,31.88
2022-12-12T18:31:50.090Z,31.88
2022-12-12T18:33:48.186Z,31.88
2022-12-12T18:35:46.491Z,31.88
2022-12-12T18:37:44.436Z,31.88
2022-12-12T18:39:42.419Z,31.88
2022-12-12T18:41:41.630Z,31.94
2022-12-12T18:43:39.527Z,31.88
2022-12-12T18:45:37.603Z,31.88
2022-12-12T18:47:35.675Z,31.94
2022-12-12T18:49:33.908Z,31.94
2022-12-12T18:51:32.079Z,31.88
2022-12-12T18:53:30.029Z,31.88
2022-12-12T18:55:30.301Z,31.94
2022-12-12T18:57:28.211Z,31.94
2022-12-12T18:59:26.158Z,31.88
2022-12-12T19:01:24.195Z,31.88
2022-12-12T19:03:22.151Z,31.94
2022-12-12T19:05:20.542Z,31.94
2022-12-12T19:07:19.931Z,31.94
2022-12-12T19:09:17.963Z,31.94
2022-12-12T19:11:16.203Z,31.94
2022-12-12T19:13:14.193Z,32.00
2022-12-12T19:15:17.099Z,31.94
2022-12-12T19:17:16.153Z,32.00
2022-12-12T19:19:16.379Z,32.00
2022-12-12T19:21:14.635Z,32.06
2022-12-12T19:23:12.589Z,32.00
2022-12-12T19:25:10.813Z,32.06
2022-12-12T19:27:11.726Z,32.06
2022-12-12T19:29:09.728Z,32.06
2022-12-12T19:31:07.766Z,32.00
2022-12-12T19:33:05.985Z,32.00
2022-12-12T19:35:04.047Z,32.00
2022-12-12T19:37:03.412Z,30.38
2022-12-12T19:39:01.406Z,29.31
2022-12-12T19:40:59.376Z,27.56
2022-12-12T19:42:57.304Z,26.50
2022-12-12T19:44:55.208Z,24.75
2022-12-12T19:46:53.163Z,28.69
2022-12-12T19:48:51.272Z,29.13
2022-12-12T19:50:49.547Z,29.75
2022-12-12T19:52:47.485Z,30.13
2022-12-12T19:54:45.391Z,30.31
2022-12-12T19:56:43.549Z,30.56
2022-12-12T19:58:41.497Z,30.88
2022-12-12T20:00:39.461Z,31.31
2022-12-12T20:02:37.769Z,31.75
2022-12-12T20:04:36.012Z,32.13
2022-12-12T20:06:34.513Z,32.44
2022-12-12T20:08:32.456Z,32.75
2022-12-12T20:10:30.549Z,33.06
2022-12-12T20:12:28.549Z,33.38
2022-12-12T20:14:26.654Z,33.63
2022-12-12T20:16:24.697Z,33.81
2022-12-12T20:18:23.008Z,34.00
2022-12-12T20:20:21.105Z,34.19
2022-12-12T20:22:18.991Z,34.38
2022-12-12T20:24:16.932Z,34.50
2022-12-12T20:26:15.913Z,34.63
2022-12-12T20:28:13.857Z,34.63
2022-12-12T20:30:12.355Z,34.69
2022-12-12T20:32:11.144Z,34.69
2022-12-12T20:34:09.315Z,34.69
2022-12-12T20:36:08.266Z,34.63
2022-12-12T20:38:06.577Z,34.56
2022-12-12T20:40:07.862Z,34.44
2022-12-12T20:42:05.944Z,34.31
2022-12-12T20:44:03.933Z,34.25
2022-12-12T20:46:01.990Z,34.06
2022-12-12T20:48:04.427Z,33.94
2022-12-12T20:50:06.360Z,33.81
2022-12-12T20:52:04.651Z,33.63
2022-12-12T20:54:02.939Z,33.56
2022-12-12T20:56:00.868Z,33.25
2022-12-12T20:57:59.511Z,33.19
2022-12-12T20:59:57.816Z,32.94
2022-12-12T21:01:55.757Z,32.81
2022-12-12T21:03:54.040Z,32.75
2022-12-12T21:05:52.008Z,32.75
2022-12-12T21:07:51.023Z,32.69
2022-12-12T21:09:48.999Z,32.63
2022-12-12T21:11:46.907Z,32.50
2022-12-12T21:13:45.918Z,32.19
2022-12-12T21:15:46.673Z,31.44
2022-12-12T21:17:44.612Z,31.25
2022-12-12T21:19:43.638Z,31.25
2022-12-12T21:21:41.903Z,31.06
2022-12-12T21:23:39.813Z,31.00
2022-12-12T21:25:37.903Z,30.81
2022-12-12T21:27:35.818Z,30.63
2022-12-12T21:29:33.862Z,31.63
2022-12-12T21:31:31.944Z,31.75
2022-12-12T21:33:29.876Z,32.13
2022-12-12T21:35:28.127Z,32.19
2022-12-12T21:37:26.214Z,32.31
2022-12-12T21:39:24.177Z,32.38
2022-12-12T21:41:22.439Z,32.38
2022-12-12T21:43:20.582Z,32.44
2022-12-12T21:45:18.501Z,32.50
2022-12-12T21:47:16.773Z,32.44
2022-12-12T21:49:26.684Z,32.38
2022-12-12T21:51:25.098Z,32.50
2022-12-12T21:53:35.372Z,32.50
2022-12-12T21:55:33.246Z,32.56
2022-12-12T21:57:31.187Z,32.56
2022-12-12T21:59:29.106Z,32.50
2022-12-12T22:01:27.351Z,32.50
2022-12-12T22:03:25.642Z,32.50
2022-12-12T22:05:23.566Z,32.56
2022-12-12T22:07:21.623Z,32.56
2022-12-12T22:09:19.748Z,32.50
2022-12-12T22:11:39.547Z,32.56
2022-12-12T22:13:39.881Z,32.50
2022-12-12T22:15:38.233Z,32.38
2022-12-12T22:17:36.367Z,32.31
2022-12-12T22:19:34.381Z,32.38
2022-12-12T22:21:33.398Z,32.31
2022-12-12T22:23:31.504Z,32.31
2022-12-12T22:25:29.411Z,32.25
2022-12-12T22:27:27.477Z,32.25
2022-12-12T22:29:25.594Z,32.25
2022-12-12T22:31:23.557Z,32.19
2022-12-12T22:33:22.212Z,32.19
2022-12-12T22:35:20.217Z,32.13
2022-12-12T22:37:18.175Z,32.13
2022-12-12T22:39:16.194Z,32.06
2022-12-12T22:41:14.289Z,32.06
2022-12-12T22:43:12.163Z,32.00
2022-12-12T22:45:10.134Z,32.00
2022-12-12T22:47:08.238Z,32.00
2022-12-12T22:49:06.370Z,32.00
2022-12-12T22:51:04.660Z,31.94
2022-12-12T22:53:02.595Z,31.94
2022-12-12T22:55:00.853Z,32.00
2022-12-12T22:56:58.779Z,32.00
2022-12-12T22:58:56.673Z,31.56
2022-12-12T23:00:54.587Z,29.75
2022-12-12T23:02:52.489Z,28.50
2022-12-12T23:04:50.612Z,27.19
2022-12-12T23:06:48.626Z,25.00
2022-12-12T23:08:46.665Z,29.25
2022-12-12T23:10:45.705Z,29.25
2022-12-12T23:12:43.985Z,29.81
2022-12-12T23:14:42.219Z,30.13
2022-12-12T23:16:40.196Z,30.19
2022-12-12T23:18:38.294Z,30.31
2022-12-12T23:20:36.232Z,30.50
2022-12-12T23:22:34.104Z,30.63
2022-12-12T23:24:32.161Z,30.81
2022-12-12T23:26:31.277Z,30.81
2022-12-12T23:28:30.358Z,30.75
2022-12-12T23:30:28.295Z,30.75
2022-12-12T23:32:26.270Z,30.56
2022-12-12T23:34:25.462Z,30.44
2022-12-12T23:36:23.463Z,30.31
2022-12-12T23:38:21.550Z,30.06
2022-12-12T23:40:19.771Z,29.81
2022-12-12T23:42:17.766Z,29.56
2022-12-12T23:44:15.714Z,29.69
2022-12-12T23:46:28.201Z,29.44
2022-12-12T23:48:26.747Z,29.06
2022-12-12T23:50:24.706Z,29.13
2022-12-12T23:52:22.987Z,28.94
2022-12-12T23:54:21.000Z,28.81
2022-12-12T23:56:18.914Z,28.81
2022-12-12T23:58:16.786Z,28.81
